Time;durP1;ratioP1;P1;durP2;ratioP2;P2;SDS_P1;SDS_P2;PMS_P1;PMS_P2;Temp;Humidity;BMP_temperature;BMP_pressure;BME280_temperature;BME280_humidity;BME280_pressure;Samples;Min_cycle;Max_cycle;Signal;HPM_P1;HPM_P2
2022/03/20 00:00:39;;;;;;;;;;;21.20;21.10;;;;;;5141628;27;19974;-60
2022/03/20 00:03:09;;;;;;;;;;;21.20;21.20;;;;;;5144525;27;20323;-50
2022/03/20 00:05:38;;;;;;;;;;;21.10;21.10;;;;;;5149836;27;20088;-60
2022/03/20 00:08:11;;;;;;;;;;;21.10;21.10;;;;;;5144321;27;19934;-55
2022/03/20 00:10:37;;;;;;;;;;;21.10;21.20;;;;;;5144471;27;19923;-59
2022/03/20 00:13:06;;;;;;;;;;;21.20;21.20;;;;;;5149856;27;20421;-56
2022/03/20 00:15:32;;;;;;;;;;;21.20;21.10;;;;;;5144311;27;20378;-58
2022/03/20 00:17:58;;;;;;;;;;;21.10;21.10;;;;;;5139479;27;19923;-58
2022/03/20 00:20:23;;;;;;;;;;;21.10;21.00;;;;;;5149505;27;19930;-59
2022/03/20 00:22:49;;;;;;;;;;;21.20;20.90;;;;;;5144369;27;19931;-59
2022/03/20 00:25:16;;;;;;;;;;;21.00;21.10;;;;;;5149633;27;19930;-57
2022/03/20 00:27:42;;;;;;;;;;;21.20;20.90;;;;;;5144068;27;20600;-59
2022/03/20 00:30:08;;;;;;;;;;;21.00;20.90;;;;;;5144063;27;19929;-59
2022/03/20 00:32:34;;;;;;;;;;;21.20;20.80;;;;;;5149348;27;19923;-55
2022/03/20 00:35:00;;;;;;;;;;;21.20;20.80;;;;;;5123560;27;19927;-58
2022/03/20 00:37:26;;;;;;;;;;;21.00;21.00;;;;;;5139968;27;20286;-59
2022/03/20 00:39:52;;;;;;;;;;;21.10;20.90;;;;;;5149230;27;19923;-58
2022/03/20 00:42:18;;;;;;;;;;;21.20;20.90;;;;;;5143688;27;19923;-60
2022/03/20 00:44:44;;;;;;;;;;;21.20;20.90;;;;;;5147449;27;19983;-56
2022/03/20 00:47:10;;;;;;;;;;;21.00;21.00;;;;;;5146086;27;19939;-59
2022/03/20 00:49:36;;;;;;;;;;;21.20;20.90;;;;;;5143786;27;19971;-59
2022/03/20 00:52:04;;;;;;;;;;;21.10;20.90;;;;;;5148960;27;19930;-55
2022/03/20 00:54:30;;;;;;;;;;;21.20;20.80;;;;;;5139009;27;19931;-58
2022/03/20 00:56:56;;;;;;;;;;;21.10;21.00;;;;;;5142970;27;19946;-60
2022/03/20 00:59:21;;;;;;;;;;;21.30;20.80;;;;;;5148965;27;19930;-60
2022/03/20 01:01:47;;;;;;;;;;;21.00;20.90;;;;;;5124949;27;19929;-56
2022/03/20 01:04:13;;;;;;;;;;;21.20;20.70;;;;;;5143610;27;20301;-55
2022/03/20 01:06:39;;;;;;;;;;;21.10;20.80;;;;;;5148797;27;19958;-52
2022/03/20 01:09:05;;;;;;;;;;;21.20;20.70;;;;;;5143301;27;19978;-58
2022/03/20 01:11:32;;;;;;;;;;;21.10;20.80;;;;;;5147326;27;19963;-56
2022/03/20 01:13:58;;;;;;;;;;;21.20;20.70;;;;;;5138729;27;20341;-57
2022/03/20 01:16:24;;;;;;;;;;;21.10;20.80;;;;;;5142955;27;19938;-57
2022/03/20 01:18:50;;;;;;;;;;;21.10;20.80;;;;;;5148451;27;19975;-55
2022/03/20 01:21:16;;;;;;;;;;;21.10;20.70;;;;;;5124363;27;20218;-59
2022/03/20 01:23:42;;;;;;;;;;;21.00;20.80;;;;;;5124540;27;20305;-60
2022/03/20 01:26:07;;;;;;;;;;;21.20;20.50;;;;;;5148438;27;20441;-59
2022/03/20 01:28:33;;;;;;;;;;;21.20;20.70;;;;;;5142878;27;20289;-58
2022/03/20 01:30:59;;;;;;;;;;;21.10;20.80;;;;;;5145165;27;19948;-60
2022/03/20 01:33:25;;;;;;;;;;;21.20;20.70;;;;;;5140651;27;19940;-59
2022/03/20 01:35:52;;;;;;;;;;;21.10;20.70;;;;;;5142707;27;19923;-60
2022/03/20 01:38:21;;;;;;;;;;;21.10;20.70;;;;;;5148336;27;19923;-56
2022/03/20 01:40:47;;;;;;;;;;;21.20;20.70;;;;;;5142918;27;19923;-59
2022/03/20 01:43:13;;;;;;;;;;;21.00;20.90;;;;;;5124230;27;20254;-60
2022/03/20 01:45:39;;;;;;;;;;;21.20;20.80;;;;;;5147846;27;19929;-60
2022/03/20 01:48:04;;;;;;;;;;;21.10;20.80;;;;;;5141880;27;19931;-60
2022/03/20 01:50:32;;;;;;;;;;;21.20;20.70;;;;;;5141951;27;20426;-57
2022/03/20 01:52:58;;;;;;;;;;;21.10;20.80;;;;;;5144352;27;19923;-62
2022/03/20 01:55:24;;;;;;;;;;;21.20;20.70;;;;;;5142775;27;20012;-52
2022/03/20 01:57:50;;;;;;;;;;;21.10;20.70;;;;;;5147919;27;20338;-60
2022/03/20 02:00:17;;;;;;;;;;;21.10;20.80;;;;;;5142449;27;20374;-60
2022/03/20 02:02:43;;;;;;;;;;;21.20;20.70;;;;;;5142500;27;20426;-58
2022/03/20 02:05:09;;;;;;;;;;;21.30;20.60;;;;;;5147847;27;20063;-59
2022/03/20 02:07:35;;;;;;;;;;;21.10;20.80;;;;;;5139683;27;19923;-60
2022/03/20 02:10:01;;;;;;;;;;;21.20;20.70;;;;;;5140057;27;19923;-55
2022/03/20 02:12:28;;;;;;;;;;;21.10;20.80;;;;;;5129111;27;19964;-60
2022/03/20 02:14:55;;;;;;;;;;;21.10;20.80;;;;;;5142235;27;19923;-60
2022/03/20 02:17:20;;;;;;;;;;;21.20;20.70;;;;;;5129338;27;19933;-61
2022/03/20 02:19:46;;;;;;;;;;;21.10;20.90;;;;;;5142363;27;19923;-59
2022/03/20 02:22:12;;;;;;;;;;;21.10;21.00;;;;;;5141901;27;19923;-60
2022/03/20 02:24:41;;;;;;;;;;;21.10;21.20;;;;;;5150694;27;19931;-54
2022/03/20 02:27:09;;;;;;;;;;;21.20;21.20;;;;;;5141478;27;20006;-61
2022/03/20 02:29:35;;;;;;;;;;;21.10;21.50;;;;;;5146137;27;19959;-57
2022/03/20 02:32:01;;;;;;;;;;;21.20;21.50;;;;;;5133234;27;20039;-52
2022/03/20 02:34:27;;;;;;;;;;;21.20;21.60;;;;;;5127581;27;19974;-58
2022/03/20 02:36:53;;;;;;;;;;;21.00;21.80;;;;;;5151699;27;20290;-61
2022/03/20 02:39:19;;;;;;;;;;;21.20;21.70;;;;;;5146391;27;20289;-57
2022/03/20 02:41:45;;;;;;;;;;;21.20;21.90;;;;;;5146347;27;19931;-59
2022/03/20 02:44:10;;;;;;;;;;;21.00;22.10;;;;;;5149811;27;19931;-56
2022/03/20 02:46:37;;;;;;;;;;;21.20;22.10;;;;;;5142384;27;20331;-60
2022/03/20 02:49:09;;;;;;;;;;;21.10;22.30;;;;;;5146027;27;19923;-58
2022/03/20 02:51:36;;;;;;;;;;;21.10;22.30;;;;;;5133001;27;19927;-59
2022/03/20 02:54:02;;;;;;;;;;;21.20;22.30;;;;;;5146035;27;20374;-55
2022/03/20 02:56:28;;;;;;;;;;;21.10;22.30;;;;;;5146903;27;19977;-59
2022/03/20 02:58:54;;;;;;;;;;;21.20;22.30;;;;;;5150827;27;19948;-56
2022/03/20 03:01:20;;;;;;;;;;;21.20;22.20;;;;;;5145595;27;19932;-59
2022/03/20 03:03:45;;;;;;;;;;;21.10;22.30;;;;;;5146430;27;19930;-60
2022/03/20 03:06:12;;;;;;;;;;;21.20;22.30;;;;;;5145050;27;19941;-61
2022/03/20 03:11:22;;;;;;;;;;;21.10;22.40;;;;;;5133852;27;19929;-58
2022/03/20 03:13:48;;;;;;;;;;;21.20;22.30;;;;;;5127224;27;19923;-58
2022/03/20 03:16:14;;;;;;;;;;;21.00;22.50;;;;;;5145668;27;20017;-58
2022/03/20 03:18:49;;;;;;;;;;;21.20;22.40;;;;;;5150960;27;20308;-60
2022/03/20 03:21:15;;;;;;;;;;;21.20;22.40;;;;;;5143433;27;19923;-59
2022/03/20 03:23:41;;;;;;;;;;;21.20;22.40;;;;;;5142110;27;19927;-60
2022/03/20 03:26:07;;;;;;;;;;;21.00;22.50;;;;;;5151005;27;20386;-57
2022/03/20 03:28:36;;;;;;;;;;;21.10;22.40;;;;;;5145273;27;20313;-59
2022/03/20 03:31:06;;;;;;;;;;;21.10;22.40;;;;;;5150525;27;20366;-61
2022/03/20 03:33:32;;;;;;;;;;;21.20;22.30;;;;;;5145252;27;20046;-60
2022/03/20 03:35:57;;;;;;;;;;;21.10;22.30;;;;;;5144790;27;19963;-59
2022/03/20 03:38:27;;;;;;;;;;;21.10;22.30;;;;;;5150498;27;19935;-59
2022/03/20 03:40:52;;;;;;;;;;;21.10;22.30;;;;;;5121984;27;19923;-58
2022/03/20 03:43:18;;;;;;;;;;;21.10;22.30;;;;;;5144730;27;19934;-59
2022/03/20 03:45:44;;;;;;;;;;;21.20;22.20;;;;;;5150304;27;20358;-60
2022/03/20 03:48:10;;;;;;;;;;;21.10;22.30;;;;;;5144840;27;20339;-60
2022/03/20 03:50:37;;;;;;;;;;;21.20;22.30;;;;;;5147522;27;20002;-57
2022/03/20 03:53:03;;;;;;;;;;;21.10;22.30;;;;;;5147992;27;19923;-58
2022/03/20 03:55:32;;;;;;;;;;;21.20;22.20;;;;;;5144531;27;19930;-59
2022/03/20 03:57:58;;;;;;;;;;;21.20;22.30;;;;;;5130288;27;19923;-59
2022/03/20 04:00:24;;;;;;;;;;;21.20;22.40;;;;;;5140824;27;20396;-61
2022/03/20 04:02:50;;;;;;;;;;;21.00;22.60;;;;;;5144455;27;20407;-60
2022/03/20 04:05:17;;;;;;;;;;;21.10;22.60;;;;;;5149989;27;19927;-60
2022/03/20 04:07:47;;;;;;;;;;;21.00;22.70;;;;;;5144406;27;19923;-59
2022/03/20 04:10:13;;;;;;;;;;;21.10;22.80;;;;;;5144768;27;19995;-57
2022/03/20 04:12:43;;;;;;;;;;;21.30;22.60;;;;;;5149914;27;19923;-58
2022/03/20 04:15:12;;;;;;;;;;;21.00;22.90;;;;;;5144431;27;19971;-57
2022/03/20 04:17:38;;;;;;;;;;;21.10;22.70;;;;;;5144199;27;19991;-60
2022/03/20 04:20:06;;;;;;;;;;;21.10;22.70;;;;;;5145102;27;19930;-61
2022/03/20 04:22:32;;;;;;;;;;;21.20;22.60;;;;;;5143814;27;19923;-58
2022/03/20 04:24:57;;;;;;;;;;;21.20;22.60;;;;;;5149761;27;20492;-61
2022/03/20 04:27:24;;;;;;;;;;;21.20;22.60;;;;;;5144278;27;19927;-55
2022/03/20 04:29:50;;;;;;;;;;;21.20;22.50;;;;;;5144055;27;20775;-59
2022/03/20 04:32:16;;;;;;;;;;;21.00;22.70;;;;;;5149257;27;19927;-58
2022/03/20 04:34:42;;;;;;;;;;;21.20;22.40;;;;;;5143141;27;19923;-58
2022/03/20 04:37:09;;;;;;;;;;;21.10;22.50;;;;;;5140475;27;19927;-57
2022/03/20 04:39:34;;;;;;;;;;;21.10;22.30;;;;;;5148893;27;20301;-60
2022/03/20 04:42:00;;;;;;;;;;;21.10;22.10;;;;;;5143553;27;20033;-58
2022/03/20 04:44:26;;;;;;;;;;;21.10;21.90;;;;;;5149118;27;19923;-60
2022/03/20 04:46:52;;;;;;;;;;;21.10;21.80;;;;;;5142924;27;20282;-58
2022/03/20 05:00:18;;;;;;;;;;;21.20;21.70;;;;;;5146981;27;20342;-57
2022/03/20 05:02:44;;;;;;;;;;;21.10;21.80;;;;;;5146735;27;19923;-58
2022/03/20 05:05:10;;;;;;;;;;;21.30;21.70;;;;;;5143279;27;19923;-58
2022/03/20 05:07:36;;;;;;;;;;;21.00;21.90;;;;;;5129457;27;19923;-59
2022/03/20 05:15:31;;;;;;;;;;;21.20;21.60;;;;;;5148095;27;19926;-61
2022/03/20 05:17:57;;;;;;;;;;;21.10;21.80;;;;;;5142877;27;20255;-57
2022/03/20 05:20:23;;;;;;;;;;;21.20;21.70;;;;;;5143040;27;20060;-58
2022/03/20 05:22:49;;;;;;;;;;;21.20;21.60;;;;;;5148444;27;20338;-60
2022/03/20 05:25:16;;;;;;;;;;;21.20;21.50;;;;;;5143216;27;19923;-61
2022/03/20 05:27:41;;;;;;;;;;;21.20;21.60;;;;;;5142880;27;20170;-59
2022/03/20 05:30:07;;;;;;;;;;;21.10;21.70;;;;;;5147393;27;19976;-58
2022/03/20 05:32:33;;;;;;;;;;;21.30;21.60;;;;;;5138648;27;20013;-60
2022/03/20 05:34:59;;;;;;;;;;;21.00;21.80;;;;;;5148397;27;20435;-62
2022/03/20 05:37:25;;;;;;;;;;;21.20;21.60;;;;;;5124379;27;20021;-57
2022/03/20 05:39:51;;;;;;;;;;;21.20;21.80;;;;;;5124321;27;19927;-58
2022/03/20 05:42:16;;;;;;;;;;;21.10;21.90;;;;;;5148109;27;20358;-60
2022/03/20 05:44:46;;;;;;;;;;;21.20;21.80;;;;;;5123695;27;19982;-58
2022/03/20 05:47:12;;;;;;;;;;;21.20;21.70;;;;;;5142837;27;19923;-59
2022/03/20 05:49:38;;;;;;;;;;;21.00;21.90;;;;;;5144885;27;20396;-57
2022/03/20 05:52:05;;;;;;;;;;;21.20;21.70;;;;;;5140569;27;20379;-56
2022/03/20 05:54:30;;;;;;;;;;;21.10;21.70;;;;;;5144869;27;20005;-57
2022/03/20 05:59:41;;;;;;;;;;;21.10;21.80;;;;;;5142414;27;19931;-61
2022/03/20 06:02:09;;;;;;;;;;;21.10;21.90;;;;;;5148000;27;19927;-58
2022/03/20 06:04:35;;;;;;;;;;;21.10;21.80;;;;;;5143623;27;20430;-60
2022/03/20 06:07:01;;;;;;;;;;;21.10;21.90;;;;;;5141638;27;19934;-58
2022/03/20 06:09:27;;;;;;;;;;;21.10;21.80;;;;;;5143176;27;20006;-60
2022/03/20 06:11:53;;;;;;;;;;;21.20;21.80;;;;;;5142354;27;19978;-59
2022/03/20 06:14:19;;;;;;;;;;;21.30;21.70;;;;;;5142378;27;19927;-57
2022/03/20 06:16:48;;;;;;;;;;;21.10;22.10;;;;;;5147704;27;20545;-60
2022/03/20 06:19:17;;;;;;;;;;;21.20;22.00;;;;;;5142517;27;19923;-57
2022/03/20 06:21:43;;;;;;;;;;;21.10;22.10;;;;;;5142459;27;19937;-59
2022/03/20 06:24:09;;;;;;;;;;;21.20;22.00;;;;;;5147697;27;19958;-61
2022/03/20 06:26:35;;;;;;;;;;;21.00;22.20;;;;;;5139130;27;19930;-61
2022/03/20 06:29:01;;;;;;;;;;;21.10;22.20;;;;;;5145441;27;20219;-59
2022/03/20 06:31:27;;;;;;;;;;;21.30;22.00;;;;;;5142216;27;19923;-60
2022/03/20 06:33:54;;;;;;;;;;;21.00;22.30;;;;;;5142178;27;19958;-60
2022/03/20 06:36:20;;;;;;;;;;;21.10;22.00;;;;;;5147492;27;19923;-58
2022/03/20 06:38:45;;;;;;;;;;;21.20;22.00;;;;;;5141896;27;20558;-58
2022/03/20 06:41:11;;;;;;;;;;;21.10;22.00;;;;;;5123734;27;19923;-58
2022/03/20 06:43:37;;;;;;;;;;;21.20;21.90;;;;;;5147099;27;19927;-60
2022/03/20 06:46:04;;;;;;;;;;;21.20;22.00;;;;;;5137212;27;20441;-51
2022/03/20 06:48:29;;;;;;;;;;;21.20;21.90;;;;;;5147238;27;20429;-60
2022/03/20 06:50:55;;;;;;;;;;;21.10;22.10;;;;;;5142067;27;20012;-59
2022/03/20 06:53:21;;;;;;;;;;;21.20;21.90;;;;;;5142070;27;19923;-60
2022/03/20 06:55:47;;;;;;;;;;;21.00;22.10;;;;;;5147465;27;20358;-57
2022/03/20 06:58:20;;;;;;;;;;;21.10;22.10;;;;;;5141986;27;19949;-59
2022/03/20 07:00:46;;;;;;;;;;;21.10;22.20;;;;;;5142618;27;19923;-58
2022/03/20 07:03:12;;;;;;;;;;;21.10;22.20;;;;;;5145349;27;20024;-60
2022/03/20 07:05:38;;;;;;;;;;;21.20;22.30;;;;;;5138725;27;19927;-53
2022/03/20 07:08:05;;;;;;;;;;;21.20;22.50;;;;;;5144339;27;20411;-58
2022/03/20 07:10:31;;;;;;;;;;;21.10;22.50;;;;;;5148487;27;19949;-54
2022/03/20 07:15:41;;;;;;;;;;;21.20;22.50;;;;;;5149025;27;19934;-54
2022/03/20 07:18:08;;;;;;;;;;;21.10;22.50;;;;;;5145937;27;19927;-59
2022/03/20 07:20:34;;;;;;;;;;;21.10;22.60;;;;;;5145194;27;19927;-53
2022/03/20 07:23:00;;;;;;;;;;;21.30;22.50;;;;;;5127523;27;19930;-59
2022/03/20 07:30:56;;;;;;;;;;;21.10;22.80;;;;;;5150702;27;19945;-52
2022/03/20 07:33:25;;;;;;;;;;;21.10;22.70;;;;;;5145235;27;19974;-53
2022/03/20 07:35:51;;;;;;;;;;;21.20;22.60;;;;;;5145111;27;19933;-62
2022/03/20 07:38:17;;;;;;;;;;;20.90;22.90;;;;;;5150496;27;19923;-58
2022/03/20 07:40:43;;;;;;;;;;;21.20;22.70;;;;;;5123717;27;19923;-59
2022/03/20 07:43:08;;;;;;;;;;;21.10;22.80;;;;;;5143057;27;20066;-59
2022/03/20 07:45:37;;;;;;;;;;;21.20;22.70;;;;;;5150430;27;19934;-58
2022/03/20 07:48:03;;;;;;;;;;;21.00;23.10;;;;;;5145029;27;19923;-57
2022/03/20 07:50:29;;;;;;;;;;;21.20;22.90;;;;;;5148363;27;20440;-60
2022/03/20 07:52:57;;;;;;;;;;;21.10;22.90;;;;;;5145125;27;19931;-57
2022/03/20 07:55:23;;;;;;;;;;;21.20;22.80;;;;;;5144895;27;19923;-60
2022/03/20 07:57:49;;;;;;;;;;;21.10;22.90;;;;;;5149923;27;20377;-58
2022/03/20 08:00:15;;;;;;;;;;;21.10;22.90;;;;;;5140314;27;19934;-57
2022/03/20 08:02:41;;;;;;;;;;;21.00;23.10;;;;;;5144851;27;20129;-57
2022/03/20 08:05:07;;;;;;;;;;;21.20;22.90;;;;;;5150008;27;19931;-61
2022/03/20 08:07:36;;;;;;;;;;;21.10;23.10;;;;;;5144400;27;19930;-59
2022/03/20 08:10:08;;;;;;;;;;;21.10;23.10;;;;;;5146498;27;20370;-56
2022/03/20 08:12:34;;;;;;;;;;;21.20;23.10;;;;;;5149804;27;19934;-57
2022/03/20 08:15:00;;;;;;;;;;;21.10;23.10;;;;;;5144481;27;19923;-59
2022/03/20 08:17:29;;;;;;;;;;;20.90;23.30;;;;;;5147468;27;21898;-57
2022/03/20 08:19:55;;;;;;;;;;;21.10;23.20;;;;;;5141478;27;20394;-54
2022/03/20 08:22:21;;;;;;;;;;;21.20;23.20;;;;;;5143184;27;19933;-61
2022/03/20 08:24:48;;;;;;;;;;;21.20;23.10;;;;;;5149619;27;19927;-50
2022/03/20 08:27:14;;;;;;;;;;;21.00;23.20;;;;;;5144125;27;19922;-55
2022/03/20 08:29:40;;;;;;;;;;;21.20;23.20;;;;;;5144198;27;20490;-59
2022/03/20 08:32:07;;;;;;;;;;;21.10;23.30;;;;;;5149303;27;19927;-60
2022/03/20 08:34:33;;;;;;;;;;;21.30;23.20;;;;;;5143880;27;19945;-61
2022/03/20 08:36:58;;;;;;;;;;;21.00;23.50;;;;;;5144728;27;20375;-58
2022/03/20 08:39:24;;;;;;;;;;;21.00;23.40;;;;;;5143733;27;19930;-60
2022/03/20 08:41:52;;;;;;;;;;;21.00;23.50;;;;;;5144460;27;19923;-56
2022/03/20 08:44:18;;;;;;;;;;;21.10;23.60;;;;;;5149232;27;19991;-58
2022/03/20 08:46:44;;;;;;;;;;;21.20;23.50;;;;;;5143892;27;20237;-59
2022/03/20 08:49:09;;;;;;;;;;;21.00;23.90;;;;;;5143943;27;20499;-58
2022/03/20 08:51:35;;;;;;;;;;;21.20;23.70;;;;;;5130740;27;19927;-58
2022/03/20 08:54:01;;;;;;;;;;;21.00;24.10;;;;;;5142237;27;19923;-58
2022/03/20 08:56:27;;;;;;;;;;;21.20;23.90;;;;;;5142728;27;19927;-59
2022/03/20 08:58:54;;;;;;;;;;;21.10;24.10;;;;;;5146567;27;20267;-56
2022/03/20 09:01:19;;;;;;;;;;;21.30;24.00;;;;;;5143699;27;19923;-58
2022/03/20 09:03:49;;;;;;;;;;;21.00;24.40;;;;;;5148900;27;19930;-58
2022/03/20 09:06:18;;;;;;;;;;;21.20;24.10;;;;;;5143346;27;19923;-59
2022/03/20 09:08:44;;;;;;;;;;;20.90;24.60;;;;;;5143314;27;19929;-52
2022/03/20 09:11:10;;;;;;;;;;;21.30;24.20;;;;;;5148926;27;20370;-60
2022/03/20 09:13:35;;;;;;;;;;;21.00;24.50;;;;;;5139603;27;19934;-57
2022/03/20 09:19:04;;;;;;;;;;;21.00;24.50;;;;;;5148628;27;20001;-60
2022/03/20 09:21:33;;;;;;;;;;;21.20;24.20;;;;;;5143033;27;20006;-59
2022/03/20 09:24:00;;;;;;;;;;;21.00;24.60;;;;;;5143182;27;20094;-60
2022/03/20 09:26:26;;;;;;;;;;;21.20;24.30;;;;;;5148464;27;19933;-59
2022/03/20 09:28:52;;;;;;;;;;;21.10;24.40;;;;;;5142947;27;19971;-49
2022/03/20 09:31:19;;;;;;;;;;;21.00;24.50;;;;;;5144363;27;20014;-51
2022/03/20 09:33:45;;;;;;;;;;;21.20;24.30;;;;;;5142272;27;20015;-58
2022/03/20 09:36:10;;;;;;;;;;;21.00;24.30;;;;;;5143013;27;19927;-59
2022/03/20 09:38:36;;;;;;;;;;;21.20;23.90;;;;;;5129812;27;20397;-56
2022/03/20 09:41:08;;;;;;;;;;;21.00;24.10;;;;;;5123938;27;19990;-60
2022/03/20 09:43:34;;;;;;;;;;;21.20;23.80;;;;;;5142589;27;20404;-60
2022/03/20 09:46:00;;;;;;;;;;;21.10;24.20;;;;;;5148334;27;19936;-60
2022/03/20 09:48:26;;;;;;;;;;;21.20;24.20;;;;;;5142703;27;19980;-57
2022/03/20 09:50:52;;;;;;;;;;;20.90;24.40;;;;;;5138109;27;19952;-60
2022/03/20 09:53:18;;;;;;;;;;;21.30;24.00;;;;;;5147336;27;19923;-59
2022/03/20 09:55:45;;;;;;;;;;;21.00;24.40;;;;;;5142629;27;20018;-60
2022/03/20 09:58:11;;;;;;;;;;;21.30;24.30;;;;;;5147990;27;19930;-57
2022/03/20 10:00:37;;;;;;;;;;;21.00;24.60;;;;;;5142759;27;20362;-47
2022/03/20 10:03:15;;;;;;;;;;;21.20;24.40;;;;;;5142344;27;19967;-58
2022/03/20 10:05:41;;;;;;;;;;;21.20;24.60;;;;;;5147594;27;19923;-59
2022/03/20 10:08:09;;;;;;;;;;;21.30;24.50;;;;;;5122631;27;19931;-55
2022/03/20 10:10:34;;;;;;;;;;;21.10;25.20;;;;;;5138287;27;20374;-60
2022/03/20 10:13:00;;;;;;;;;;;21.20;25.20;;;;;;5147776;27;19934;-49
2022/03/20 10:15:34;;;;;;;;;;;21.00;25.60;;;;;;5142391;27;20698;-56
2022/03/20 10:18:14;;;;;;;;;;;21.30;25.40;;;;;;5142503;27;20130;-58
2022/03/20 10:20:44;;;;;;;;;;;21.30;25.50;;;;;;5147859;27;19927;-58
2022/03/20 10:23:29;;;;;;;;;;;21.10;25.70;;;;;;5142713;27;20302;-58
2022/03/20 10:25:54;;;;;;;;;;;21.20;25.80;;;;;;5142397;27;19939;-56
2022/03/20 10:28:20;;;;;;;;;;;21.20;26.10;;;;;;5124433;27;20308;-57
2022/03/20 10:30:58;;;;;;;;;;;21.10;26.30;;;;;;5142107;27;20363;-60
2022/03/20 10:33:24;;;;;;;;;;;21.30;26.20;;;;;;5142812;27;19923;-58
2022/03/20 10:36:08;;;;;;;;;;;21.10;26.60;;;;;;5147840;27;19923;-56
2022/03/20 10:38:36;;;;;;;;;;;21.10;26.60;;;;;;5142209;27;19923;-58
2022/03/20 10:41:14;;;;;;;;;;;21.00;26.70;;;;;;5144475;27;19937;-58
2022/03/20 10:43:41;;;;;;;;;;;21.20;26.70;;;;;;5147795;27;19935;-57
2022/03/20 10:46:07;;;;;;;;;;;21.00;27.00;;;;;;5124489;27;19931;-58
2022/03/20 10:48:33;;;;;;;;;;;21.20;26.60;;;;;;5149754;27;19969;-51
2022/03/20 10:50:59;;;;;;;;;;;21.10;26.80;;;;;;5127806;27;20237;-60
2022/03/20 10:53:25;;;;;;;;;;;21.30;26.60;;;;;;5146275;27;19923;-54
2022/03/20 10:55:55;;;;;;;;;;;21.10;27.00;;;;;;5151628;27;20322;-60
2022/03/20 10:58:22;;;;;;;;;;;21.30;26.90;;;;;;5146194;27;19949;-58
2022/03/20 11:00:48;;;;;;;;;;;21.10;27.20;;;;;;5146680;27;20209;-60
2022/03/20 11:03:21;;;;;;;;;;;21.30;27.10;;;;;;5150950;27;20401;-57
2022/03/20 11:05:47;;;;;;;;;;;21.10;27.30;;;;;;5141935;27;19927;-59
2022/03/20 11:08:13;;;;;;;;;;;21.20;27.30;;;;;;5145970;27;20001;-54
2022/03/20 11:10:39;;;;;;;;;;;21.10;27.50;;;;;;5151165;27;20294;-60
2022/03/20 11:13:05;;;;;;;;;;;21.30;27.30;;;;;;5126302;27;19927;-52
2022/03/20 11:15:32;;;;;;;;;;;21.10;27.80;;;;;;5151293;27;19927;-59
2022/03/20 11:17:58;;;;;;;;;;;21.20;27.80;;;;;;5146336;27;19937;-60
2022/03/20 11:20:23;;;;;;;;;;;21.30;27.60;;;;;;5127017;27;19931;-57
2022/03/20 11:22:50;;;;;;;;;;;21.10;27.70;;;;;;5148487;27;19975;-56
2022/03/20 11:25:20;;;;;;;;;;;21.20;27.60;;;;;;5142462;27;19923;-54
2022/03/20 11:27:47;;;;;;;;;;;21.10;27.70;;;;;;5145377;27;20437;-60
2022/03/20 11:30:13;;;;;;;;;;;21.30;27.60;;;;;;5150780;27;19975;-59
2022/03/20 11:32:39;;;;;;;;;;;21.00;28.10;;;;;;5126692;27;20330;-60
2022/03/20 11:35:05;;;;;;;;;;;21.30;27.60;;;;;;5150665;27;19923;-50
2022/03/20 11:37:46;;;;;;;;;;;21.10;27.60;;;;;;5145671;27;20069;-60
2022/03/20 11:40:19;;;;;;;;;;;21.20;27.40;;;;;;5144768;27;19923;-58
2022/03/20 11:42:45;;;;;;;;;;;21.10;27.20;;;;;;5128082;27;19927;-57
2022/03/20 11:45:16;;;;;;;;;;;21.20;27.00;;;;;;5145419;27;20317;-60
2022/03/20 11:47:43;;;;;;;;;;;21.30;27.10;;;;;;5145454;27;19922;-55
2022/03/20 11:50:22;;;;;;;;;;;21.20;27.20;;;;;;5150535;27;19923;-60
2022/03/20 11:52:53;;;;;;;;;;;21.30;27.00;;;;;;5144928;27;19931;-60
2022/03/20 11:55:26;;;;;;;;;;;21.20;26.90;;;;;;5145349;27;20013;-58
2022/03/20 11:57:52;;;;;;;;;;;21.20;26.80;;;;;;5150244;27;19930;-57
2022/03/20 12:00:19;;;;;;;;;;;21.10;26.80;;;;;;5123169;27;20298;-58
2022/03/20 12:03:04;;;;;;;;;;;21.10;27.10;;;;;;5124688;27;19956;-59
2022/03/20 12:05:42;;;;;;;;;;;21.20;27.00;;;;;;5150128;27;19923;-59
2022/03/20 12:08:21;;;;;;;;;;;21.20;27.00;;;;;;5144048;27;19975;-60
2022/03/20 12:10:52;;;;;;;;;;;21.20;27.00;;;;;;5125901;27;19931;-57
2022/03/20 12:13:21;;;;;;;;;;;21.10;26.90;;;;;;5149660;27;20018;-59
2022/03/20 12:15:47;;;;;;;;;;;21.30;26.80;;;;;;5144273;27;20016;-60
2022/03/20 12:18:13;;;;;;;;;;;21.30;26.90;;;;;;5142887;27;19935;-57
2022/03/20 12:20:48;;;;;;;;;;;21.30;27.10;;;;;;5146216;27;19927;-60
2022/03/20 12:23:29;;;;;;;;;;;21.20;27.20;;;;;;5144302;27;19998;-59
2022/03/20 12:25:55;;;;;;;;;;;21.20;27.30;;;;;;5142344;27;19926;-59
2022/03/20 12:28:28;;;;;;;;;;;21.30;27.00;;;;;;5149781;27;19931;-60
2022/03/20 12:30:54;;;;;;;;;;;21.30;26.70;;;;;;5144192;27;19923;-59
2022/03/20 12:33:26;;;;;;;;;;;21.20;26.90;;;;;;5145475;27;19980;-58
2022/03/20 12:35:52;;;;;;;;;;;21.30;26.70;;;;;;5149141;27;20009;-59
2022/03/20 12:38:37;;;;;;;;;;;21.20;26.60;;;;;;5139235;27;20417;-60
2022/03/20 12:41:07;;;;;;;;;;;21.30;26.50;;;;;;5145891;27;20408;-55
2022/03/20 12:43:33;;;;;;;;;;;21.10;26.60;;;;;;5149305;27;19930;-61
2022/03/20 12:46:00;;;;;;;;;;;21.20;26.30;;;;;;5144070;27;20396;-60
2022/03/20 12:48:30;;;;;;;;;;;21.30;26.30;;;;;;5149327;27;19927;-59
2022/03/20 12:51:01;;;;;;;;;;;21.20;26.30;;;;;;5143658;27;19923;-60
2022/03/20 12:53:35;;;;;;;;;;;21.30;26.20;;;;;;5143554;27;19927;-59
2022/03/20 12:56:01;;;;;;;;;;;21.20;26.30;;;;;;5145593;27;19956;-54
2022/03/20 12:58:27;;;;;;;;;;;21.20;26.20;;;;;;5142279;27;19927;-59
2022/03/20 13:00:55;;;;;;;;;;;21.30;25.90;;;;;;5143372;27;19931;-58
2022/03/20 13:03:21;;;;;;;;;;;21.20;25.90;;;;;;5130358;27;19927;-57
2022/03/20 13:05:51;;;;;;;;;;;21.20;26.10;;;;;;5143487;27;19967;-58
2022/03/20 13:08:30;;;;;;;;;;;21.20;26.10;;;;;;5142802;27;19937;-59
2022/03/20 13:10:57;;;;;;;;;;;21.20;26.00;;;;;;5148961;27;20289;-57
2022/03/20 13:13:30;;;;;;;;;;;21.30;26.10;;;;;;5142545;27;19924;-59
2022/03/20 13:15:55;;;;;;;;;;;21.20;26.10;;;;;;5140361;27;19931;-58
2022/03/20 13:18:25;;;;;;;;;;;21.30;25.80;;;;;;5147912;27;19930;-59
2022/03/20 13:20:51;;;;;;;;;;;21.30;26.00;;;;;;5124735;27;20297;-59
2022/03/20 13:23:17;;;;;;;;;;;21.20;26.00;;;;;;5148773;27;19931;-59
2022/03/20 13:25:44;;;;;;;;;;;21.30;25.60;;;;;;5124711;27;19923;-60
2022/03/20 13:28:28;;;;;;;;;;;21.30;25.20;;;;;;5143101;27;20013;-58
2022/03/20 13:30:56;;;;;;;;;;;21.30;25.00;;;;;;5148531;27;19941;-60
2022/03/20 13:33:34;;;;;;;;;;;21.30;24.70;;;;;;5120403;27;20390;-57
2022/03/20 13:36:01;;;;;;;;;;;21.30;24.80;;;;;;5142680;27;20015;-59
2022/03/20 13:38:33;;;;;;;;;;;21.30;24.90;;;;;;5148494;27;20332;-58
2022/03/20 13:41:06;;;;;;;;;;;21.40;24.80;;;;;;5142919;27;20346;-59
2022/03/20 13:43:32;;;;;;;;;;;21.30;24.80;;;;;;5142818;27;20081;-60
2022/03/20 13:46:09;;;;;;;;;;;21.30;25.00;;;;;;5148207;27;19962;-57
2022/03/20 13:48:36;;;;;;;;;;;21.30;24.90;;;;;;5142822;27;19923;-59
2022/03/20 13:51:04;;;;;;;;;;;21.30;24.70;;;;;;5140906;27;19935;-58
2022/03/20 13:53:30;;;;;;;;;;;21.30;24.70;;;;;;5144618;27;19923;-57
2022/03/20 13:55:56;;;;;;;;;;;21.30;24.60;;;;;;5142503;27;20361;-59
2022/03/20 13:58:22;;;;;;;;;;;21.40;24.50;;;;;;5147470;27;19939;-57
2022/03/20 14:00:49;;;;;;;;;;;21.30;24.40;;;;;;5143390;27;19930;-57
2022/03/20 14:03:22;;;;;;;;;;;21.30;24.40;;;;;;5124249;27;20092;-58
2022/03/20 14:05:51;;;;;;;;;;;21.40;24.50;;;;;;5148038;27;19927;-59
2022/03/20 14:08:17;;;;;;;;;;;21.50;24.50;;;;;;5142013;27;19923;-57
2022/03/20 14:10:50;;;;;;;;;;;21.50;24.60;;;;;;5137852;27;19924;-57
2022/03/20 14:13:18;;;;;;;;;;;21.40;24.40;;;;;;5147477;27;19942;-59
2022/03/20 14:15:54;;;;;;;;;;;21.40;24.20;;;;;;5142548;27;20263;-58
2022/03/20 14:18:20;;;;;;;;;;;21.50;24.30;;;;;;5143318;27;19931;-58
2022/03/20 14:20:45;;;;;;;;;;;21.50;24.50;;;;;;5133898;27;19948;-59
2022/03/20 14:23:12;;;;;;;;;;;21.50;24.60;;;;;;5146855;27;19923;-59
2022/03/20 14:25:42;;;;;;;;;;;21.40;24.30;;;;;;5147154;27;19929;-56
2022/03/20 14:28:14;;;;;;;;;;;21.50;23.90;;;;;;5150216;27;19953;-56
2022/03/20 14:41:53;;;;;;;;;;;21.40;23.40;;;;;;5144153;27;20305;-60
2022/03/20 14:44:28;;;;;;;;;;;21.50;23.40;;;;;;5151772;27;20386;-58
2022/03/20 14:46:56;;;;;;;;;;;21.40;23.60;;;;;;5143505;27;19922;-58
2022/03/20 14:49:24;;;;;;;;;;;21.50;23.60;;;;;;5143625;27;20001;-60
2022/03/20 14:51:51;;;;;;;;;;;21.50;23.50;;;;;;5151566;27;19935;-58
2022/03/20 14:54:17;;;;;;;;;;;21.60;23.20;;;;;;5146135;27;19930;-56
2022/03/20 14:56:43;;;;;;;;;;;21.50;23.00;;;;;;5146220;27;20009;-57
2022/03/20 14:59:10;;;;;;;;;;;21.60;22.90;;;;;;5132954;27;19923;-58
2022/03/20 15:01:42;;;;;;;;;;;21.60;22.70;;;;;;5145859;27;19929;-60